Flight Briefing for CMB818

Departure Arrival
Ramstein Air Force Base (ETAR)
Click to view FAA NOTAMS
RAF Mildenhall (EGUN)
Click to view FAA NOTAMS
Departure Time Arrival Time
N/A N/A
Aircraft Distance
B767-300BDSF 322nm
Departure METAR Arrival METAR
ETAR 200856Z AUTO 00000KT 9999 CLR 05/M01 A3055 RMK AO2 SLPNO T00541013 52011 $ EGUN 200856Z 23007KT 9999 SCT160 10/10 A3045 RMK AO2A SLPNO WND DATA ESTMD T00950095 52013 $
Suggested Route





View recent IFR Routes data
Notes
USTRANSCOM CONTRACT FLIGHT

Charts and Procedures

Charts for ETAR
No chart available
Charts for EGUN
No chart available

Windy.com Weather Map